Time;durP1;ratioP1;P1;durP2;ratioP2;P2;SDS_P1;SDS_P2;PMS_P1;PMS_P2;Temp;Humidity;BMP_temperature;BMP_pressure;BME280_temperature;BME280_humidity;BME280_pressure;Samples;Min_cycle;Max_cycle;Signal;HPM_P1;HPM_P2
2024/04/12 00:01:46;;;;;;;54.63;23.25;;;12.20;99.90;;;;;;5529760;25;20048;-80
2024/04/12 00:04:17;;;;;;;59.58;24.50;;;12.20;99.90;;;;;;5503081;26;20034;-80
2024/04/12 00:06:45;;;;;;;50.88;22.52;;;12.20;99.90;;;;;;5532485;25;20021;-79
2024/04/12 00:09:17;;;;;;;53.55;22.48;;;12.20;99.90;;;;;;5535997;25;20021;-80
2024/04/12 00:11:44;;;;;;;51.85;22.15;;;12.20;99.90;;;;;;5543965;25;20030;-78
2024/04/12 00:14:13;;;;;;;54.10;24.30;;;12.20;99.90;;;;;;5527061;25;20034;-80
2024/04/12 00:16:43;;;;;;;62.72;26.88;;;12.20;99.90;;;;;;5510749;25;20611;-78
2024/04/12 00:19:18;;;;;;;56.40;24.30;;;12.20;99.90;;;;;;5528954;25;20057;-79
2024/04/12 00:21:48;;;;;;;58.75;23.88;;;12.20;99.90;;;;;;5496623;26;20026;-80
2024/04/12 00:24:16;;;;;;;55.72;24.83;;;12.20;99.90;;;;;;5519462;25;20029;-79
2024/04/12 00:26:46;;;;;;;52.70;22.48;;;12.20;99.90;;;;;;5535055;25;20037;-80
2024/04/12 00:29:36;;;;;;;53.63;25.02;;;12.30;99.90;;;;;;5529207;25;20033;-79
2024/04/12 00:32:13;;;;;;;51.60;23.33;;;12.30;99.90;;;;;;5530896;25;20037;-82
2024/04/12 00:34:47;;;;;;;55.00;23.63;;;12.30;99.90;;;;;;5528354;25;20020;-80
2024/04/12 00:37:18;;;;;;;54.53;26.23;;;12.30;99.90;;;;;;5522168;26;20045;-80
2024/04/12 00:39:48;;;;;;;56.53;26.65;;;12.30;99.90;;;;;;5529877;25;20028;-79
2024/04/12 00:42:24;;;;;;;51.40;24.17;;;12.30;99.90;;;;;;5527590;25;20072;-80
2024/04/12 00:44:53;;;;;;;58.80;26.48;;;12.30;99.90;;;;;;5519634;25;20022;-78
2024/04/12 00:47:22;;;;;;;54.22;25.23;;;12.30;99.90;;;;;;5525346;25;20025;-80
2024/04/12 00:49:51;;;;;;;54.00;24.77;;;12.30;99.90;;;;;;5553039;25;20020;-79
2024/04/12 00:52:22;;;;;;;47.75;22.52;;;12.30;99.90;;;;;;5530640;25;20493;-79
2024/04/12 00:55:06;;;;;;;54.97;25.48;;;12.30;99.90;;;;;;5534291;25;20021;-80
2024/04/12 00:57:37;;;;;;;53.92;21.58;;;12.30;99.90;;;;;;5531931;25;20021;-80
2024/04/12 01:00:12;;;;;;;51.58;24.05;;;12.30;99.90;;;;;;5520045;26;20037;-81
2024/04/12 01:02:40;;;;;;;55.70;24.80;;;12.30;99.90;;;;;;5529620;25;20001;-79
2024/04/12 01:05:11;;;;;;;52.33;24.05;;;12.30;99.90;;;;;;5528473;25;20025;-80
2024/04/12 01:07:48;;;;;;;46.42;22.58;;;12.30;99.90;;;;;;5515492;25;20025;-81
2024/04/12 01:10:21;;;;;;;53.05;24.38;;;12.40;99.90;;;;;;5536146;25;20034;-80
2024/04/12 01:12:53;;;;;;;60.78;24.55;;;12.30;99.90;;;;;;5535794;25;20025;-80
2024/04/12 01:15:20;;;;;;;56.38;25.23;;;12.30;99.90;;;;;;5529714;25;20095;-79
2024/04/12 01:17:51;;;;;;;49.38;22.90;;;12.40;99.90;;;;;;5533357;25;20033;-79
2024/04/12 01:20:21;;;;;;;51.50;24.15;;;12.40;99.90;;;;;;5528481;25;20025;-79
2024/04/12 01:22:49;;;;;;;48.65;23.48;;;12.40;99.90;;;;;;5544574;25;20393;-80
2024/04/12 01:25:17;;;;;;;51.35;23.05;;;12.40;99.90;;;;;;5524392;25;20384;-80
2024/04/12 01:27:44;;;;;;;44.65;21.75;;;12.40;99.90;;;;;;5585752;25;20029;-80
2024/04/12 01:30:11;;;;;;;47.22;21.85;;;12.40;99.90;;;;;;5525382;25;20029;-81
2024/04/12 01:32:39;;;;;;;45.53;21.45;;;12.40;99.90;;;;;;5512181;25;20025;-79
2024/04/12 01:35:08;;;;;;;45.08;21.30;;;12.40;99.90;;;;;;5523987;25;20038;-79
2024/04/12 01:37:35;;;;;;;40.53;19.20;;;12.40;99.90;;;;;;5512165;25;20031;-81
2024/04/12 01:40:02;;;;;;;43.72;20.45;;;12.50;99.90;;;;;;5519698;25;20034;-79
2024/04/12 01:42:30;;;;;;;44.83;20.33;;;12.50;99.90;;;;;;5513985;25;20033;-81
2024/04/12 01:45:15;;;;;;;45.97;22.40;;;12.50;99.90;;;;;;5528137;25;20030;-79
2024/04/12 01:47:45;;;;;;;45.72;22.48;;;12.60;99.90;;;;;;5526157;25;20037;-80
2024/04/12 01:50:12;;;;;;;46.90;21.55;;;12.50;99.90;;;;;;5537624;25;20034;-80
2024/04/12 01:52:55;;;;;;;45.92;21.73;;;12.50;99.90;;;;;;5521240;25;20034;-79
2024/04/12 01:55:24;;;;;;;48.03;21.77;;;12.50;99.90;;;;;;5555485;25;20041;-79
2024/04/12 01:57:55;;;;;;;44.92;20.83;;;12.50;99.90;;;;;;5535659;25;20033;-79
2024/04/12 02:00:23;;;;;;;46.75;21.73;;;12.50;99.90;;;;;;5533634;25;20037;-79
2024/04/12 02:02:53;;;;;;;44.40;20.98;;;12.50;99.90;;;;;;5527823;25;20029;-80
2024/04/12 02:05:33;;;;;;;42.60;20.90;;;12.60;99.90;;;;;;5526623;25;20025;-81
2024/04/12 02:08:07;;;;;;;40.97;20.25;;;12.50;99.90;;;;;;5529074;25;20033;-79
2024/04/12 02:10:41;;;;;;;40.45;21.48;;;12.90;99.90;;;;;;5518906;25;20030;-80
2024/04/12 02:13:10;;;;;;;41.30;21.67;;;12.60;99.90;;;;;;5528104;25;20018;-79
2024/04/12 02:15:40;;;;;;;41.13;20.48;;;12.60;99.90;;;;;;5525498;25;20402;-80
2024/04/12 02:18:08;;;;;;;42.17;19.83;;;12.60;99.90;;;;;;5520092;25;20022;-79
2024/04/12 02:20:34;;;;;;;40.92;21.80;;;12.60;99.90;;;;;;5590504;25;20028;-80
2024/04/12 02:23:05;;;;;;;43.95;21.63;;;12.60;99.90;;;;;;5525716;25;20025;-80
2024/04/12 02:25:36;;;;;;;46.60;22.15;;;12.60;99.90;;;;;;5526470;25;20024;-79
2024/04/12 02:28:11;;;;;;;36.00;19.48;;;12.60;99.90;;;;;;5531893;25;20034;-82
2024/04/12 02:30:45;;;;;;;40.50;19.25;;;12.60;99.90;;;;;;5527155;25;20025;-79
2024/04/12 02:33:17;;;;;;;45.67;21.00;;;12.70;99.90;;;;;;5529954;25;20045;-80
2024/04/12 02:35:45;;;;;;;42.22;21.88;;;12.60;99.90;;;;;;5531960;25;20033;-80
2024/04/12 02:38:16;;;;;;;45.22;20.25;;;12.60;99.90;;;;;;5533356;25;20013;-79
2024/04/12 02:40:43;;;;;;;43.65;21.05;;;12.60;99.90;;;;;;5523929;25;20026;-79
2024/04/12 02:43:14;;;;;;;46.05;21.35;;;12.60;99.90;;;;;;5535179;25;20095;-80
2024/04/12 02:45:51;;;;;;;41.25;19.92;;;12.50;99.90;;;;;;5530674;25;20468;-79
2024/04/12 02:48:22;;;;;;;38.33;19.27;;;12.60;99.90;;;;;;5521086;25;20033;-79
2024/04/12 02:50:53;;;;;;;40.38;20.00;;;12.60;99.90;;;;;;5521831;25;20026;-80
2024/04/12 02:53:22;;;;;;;38.13;19.05;;;12.60;99.90;;;;;;5525977;25;20029;-80
2024/04/12 02:56:09;;;;;;;38.67;19.92;;;12.60;99.90;;;;;;5521971;25;20496;-80
2024/04/12 02:58:40;;;;;;;38.20;19.45;;;12.60;99.90;;;;;;5520142;25;20357;-82
2024/04/12 03:01:08;;;;;;;35.70;19.08;;;12.60;99.90;;;;;;5522379;25;20048;-81
2024/04/12 03:03:41;;;;;;;40.40;19.83;;;12.60;99.90;;;;;;5534087;25;20028;-79
2024/04/12 03:06:10;;;;;;;45.38;21.20;;;12.60;99.90;;;;;;5517053;25;20029;-80
2024/04/12 03:08:40;;;;;;;43.05;21.65;;;12.60;99.90;;;;;;5529426;25;20033;-80
2024/04/12 03:11:22;;;;;;;45.90;23.23;;;12.60;99.90;;;;;;5522348;25;20373;-79
2024/04/12 03:13:58;;;;;;;50.10;23.73;;;12.60;99.90;;;;;;5526517;25;20380;-80
2024/04/12 03:16:25;;;;;;;44.83;24.25;;;12.60;99.90;;;;;;5528579;25;20477;-80
2024/04/12 03:18:52;;;;;;;42.83;20.88;;;12.50;99.90;;;;;;5535766;25;20493;-80
2024/04/12 03:21:26;;;;;;;47.63;21.98;;;12.50;99.90;;;;;;5535110;25;20029;-79
2024/04/12 03:23:54;;;;;;;47.38;22.27;;;12.50;99.90;;;;;;5543763;25;20041;-79
2024/04/12 03:26:21;;;;;;;56.88;25.10;;;12.50;99.90;;;;;;5530086;25;20021;-80
2024/04/12 03:28:50;;;;;;;46.95;22.00;;;12.50;99.90;;;;;;5532017;25;20009;-79
2024/04/12 03:31:17;;;;;;;46.72;23.88;;;12.50;99.90;;;;;;5525718;25;20041;-81
2024/04/12 03:33:45;;;;;;;46.40;22.20;;;12.50;99.90;;;;;;5534398;25;20963;-80
2024/04/12 03:41:56;;;;;;;45.57;22.10;;;12.60;99.90;;;;;;5518389;25;20025;-80
2024/04/12 03:44:25;;;;;;;46.70;22.55;;;12.60;99.90;;;;;;5522331;25;20226;-80
2024/04/12 03:46:53;;;;;;;33.38;17.38;;;12.60;99.90;;;;;;5522169;25;20030;-80
2024/04/12 03:49:20;;;;;;;33.83;19.02;;;12.60;99.90;;;;;;5518373;25;20504;-80
2024/04/12 03:51:49;;;;;;;34.13;17.85;;;12.60;99.90;;;;;;5528693;25;20120;-79
2024/04/12 03:54:18;;;;;;;34.88;18.58;;;12.60;99.90;;;;;;5517845;25;20018;-79
2024/04/12 03:56:49;;;;;;;34.00;17.40;;;12.50;99.90;;;;;;5527258;25;20037;-79
2024/04/12 03:59:18;;;;;;;32.70;16.88;;;12.50;99.90;;;;;;5523246;25;20026;-79
2024/04/12 04:01:48;;;;;;;31.42;15.68;;;12.50;99.90;;;;;;5519573;26;20033;-79
2024/04/12 04:04:17;;;;;;;27.63;14.63;;;12.50;99.90;;;;;;5518556;25;20030;-80
2024/04/12 04:06:54;;;;;;;25.73;14.52;;;12.50;99.90;;;;;;5522521;25;20034;-81
2024/04/12 04:09:21;;;;;;;28.27;14.75;;;12.50;99.90;;;;;;5523742;25;20033;-79
2024/04/12 04:11:49;;;;;;;26.80;15.00;;;12.50;99.90;;;;;;5547960;25;20487;-79
2024/04/12 04:14:19;;;;;;;25.85;14.02;;;12.50;99.90;;;;;;5532597;25;20367;-80
2024/04/12 04:17:10;;;;;;;25.98;13.38;;;12.60;99.90;;;;;;5532986;25;20051;-83
2024/04/12 04:19:39;;;;;;;22.90;12.18;;;12.50;99.90;;;;;;5524260;25;20021;-80
2024/04/12 04:25:10;;;;;;;25.95;14.57;;;12.50;99.90;;;;;;5430607;26;20023;-80
2024/04/12 04:27:38;;;;;;;25.40;14.23;;;13.30;99.90;;;;;;5492299;25;20021;-79
2024/04/12 04:30:05;;;;;;;25.25;13.38;;;12.50;99.90;;;;;;5532020;25;20036;-80
2024/04/12 04:32:32;;;;;;;29.70;15.88;;;12.50;99.90;;;;;;5533866;25;20017;-81
2024/04/12 04:35:08;;;;;;;27.75;14.55;;;12.50;99.90;;;;;;5541219;25;20492;-80
2024/04/12 04:37:39;;;;;;;31.45;16.75;;;12.50;99.90;;;;;;5542532;25;20024;-81
2024/04/12 04:40:16;;;;;;;28.42;16.38;;;12.50;99.90;;;;;;5546916;25;20738;-80
2024/04/12 04:42:45;;;;;;;26.20;15.07;;;12.50;99.90;;;;;;5505273;25;20037;-79
2024/04/12 04:45:18;;;;;;;28.90;15.90;;;12.50;99.90;;;;;;5546689;25;20484;-79
2024/04/12 04:47:45;;;;;;;32.60;17.95;;;12.50;99.90;;;;;;5530854;25;20425;-81
2024/04/12 04:50:13;;;;;;;34.13;18.95;;;12.50;99.90;;;;;;5534626;25;20013;-79
2024/04/12 04:52:40;;;;;;;31.25;17.00;;;12.50;99.90;;;;;;5526478;25;20019;-81
2024/04/12 04:55:07;;;;;;;31.85;16.60;;;12.50;99.90;;;;;;5538586;25;20018;-83
2024/04/12 04:57:43;;;;;;;31.35;16.05;;;12.60;99.90;;;;;;5545249;25;20025;-79
2024/04/12 05:00:22;;;;;;;31.27;16.40;;;12.50;99.90;;;;;;5532772;25;20095;-80
2024/04/12 05:02:53;;;;;;;31.30;17.30;;;12.50;99.90;;;;;;5497709;26;20029;-80
2024/04/12 05:05:23;;;;;;;28.35;15.63;;;12.50;99.90;;;;;;5537879;25;20007;-81
2024/04/12 05:07:55;;;;;;;32.67;16.88;;;12.50;99.90;;;;;;5538971;25;20037;-80
2024/04/12 05:10:22;;;;;;;30.10;15.45;;;12.60;99.90;;;;;;5541593;25;20051;-80
2024/04/12 05:12:50;;;;;;;31.30;15.23;;;12.50;99.90;;;;;;5544704;25;20028;-79
2024/04/12 05:18:03;;;;;;;31.98;18.33;;;12.60;99.90;;;;;;5537386;25;20025;-80
2024/04/12 05:20:40;;;;;;;33.20;18.08;;;12.50;99.90;;;;;;5518527;25;20040;-78
2024/04/12 05:23:13;;;;;;;30.40;15.85;;;12.60;99.90;;;;;;5517505;26;20025;-81
2024/04/12 05:25:51;;;;;;;32.97;16.92;;;12.60;99.90;;;;;;5526562;25;20026;-81
2024/04/12 05:28:19;;;;;;;34.63;17.38;;;13.00;99.90;;;;;;5540645;25;20024;-80
2024/04/12 05:30:50;;;;;;;26.73;14.60;;;12.60;99.90;;;;;;5544515;25;20028;-81
2024/04/12 05:33:16;;;;;;;29.92;16.67;;;12.60;99.90;;;;;;5545162;25;20017;-80
2024/04/12 05:35:46;;;;;;;29.75;15.50;;;12.60;99.90;;;;;;5532404;25;20029;-80
2024/04/12 05:38:12;;;;;;;27.00;15.75;;;12.60;99.90;;;;;;5546352;25;20053;-80
2024/04/12 05:40:51;;;;;;;30.48;14.07;;;12.50;99.90;;;;;;5540506;25;20473;-80
2024/04/12 05:43:21;;;;;;;27.10;14.27;;;12.50;99.90;;;;;;5541390;25;20022;-80
2024/04/12 05:45:50;;;;;;;31.77;15.18;;;12.50;99.90;;;;;;5546010;25;20036;-81
2024/04/12 05:48:17;;;;;;;29.08;14.32;;;12.60;99.90;;;;;;5545675;25;20029;-79
2024/04/12 05:50:48;;;;;;;26.27;13.00;;;12.60;99.90;;;;;;5540233;25;20029;-81
2024/04/12 05:53:19;;;;;;;27.70;14.25;;;12.60;99.90;;;;;;5539123;25;20034;-80
2024/04/12 05:55:51;;;;;;;28.20;14.30;;;12.60;99.90;;;;;;5540172;25;20020;-81
2024/04/12 05:58:23;;;;;;;27.40;14.07;;;12.60;99.90;;;;;;5545702;25;20021;-80
2024/04/12 06:00:50;;;;;;;30.63;15.55;;;12.60;99.90;;;;;;5538863;25;20030;-79
2024/04/12 06:03:17;;;;;;;31.05;16.58;;;12.60;99.90;;;;;;5560435;25;20017;-79
2024/04/12 06:05:53;;;;;;;27.92;14.35;;;12.60;99.90;;;;;;5522585;25;19997;-79
2024/04/12 06:08:22;;;;;;;29.17;14.15;;;12.60;99.90;;;;;;5537796;25;20025;-81
2024/04/12 06:10:50;;;;;;;27.92;15.07;;;12.60;99.90;;;;;;5524382;25;20030;-81
2024/04/12 06:13:17;;;;;;;26.52;13.75;;;12.60;99.90;;;;;;5541084;25;20029;-80
2024/04/12 06:15:45;;;;;;;28.88;15.38;;;12.60;99.90;;;;;;5546122;25;20365;-80
2024/04/12 06:18:12;;;;;;;31.27;15.45;;;12.60;99.90;;;;;;5546192;25;20029;-79
2024/04/12 06:20:40;;;;;;;29.10;15.20;;;12.60;99.90;;;;;;5548057;25;20484;-81
2024/04/12 06:23:06;;;;;;;28.92;14.65;;;12.60;99.90;;;;;;5520974;26;20037;-80
2024/04/12 06:25:45;;;;;;;32.38;15.20;;;12.60;99.90;;;;;;5539730;25;20004;-82
2024/04/12 06:28:13;;;;;;;31.75;15.88;;;12.60;99.90;;;;;;5544594;25;20024;-80
2024/04/12 06:30:47;;;;;;;29.48;15.93;;;12.70;99.90;;;;;;5540109;25;20025;-81
2024/04/12 06:33:19;;;;;;;34.88;17.50;;;12.60;99.90;;;;;;5554967;25;20037;-81
2024/04/12 06:35:49;;;;;;;31.73;16.73;;;12.70;99.90;;;;;;5548466;25;20048;-81
2024/04/12 06:38:22;;;;;;;34.42;16.08;;;12.70;99.90;;;;;;5546025;25;20021;-81
2024/04/12 06:40:53;;;;;;;36.13;18.38;;;12.70;99.90;;;;;;5552484;25;20044;-80
2024/04/12 06:43:20;;;;;;;32.35;16.13;;;12.80;99.90;;;;;;5540934;25;20020;-79
2024/04/12 06:46:02;;;;;;;35.13;17.27;;;12.80;99.90;;;;;;5533077;25;20025;-79
2024/04/12 06:48:29;;;;;;;30.92;15.88;;;12.80;99.90;;;;;;5525891;25;20025;-81
2024/04/12 06:51:24;;;;;;;31.50;17.38;;;12.90;99.90;;;;;;5533926;25;20023;-79
2024/04/12 06:53:54;;;;;;;29.65;16.05;;;12.90;99.90;;;;;;5546014;25;20356;-79
2024/04/12 06:56:22;;;;;;;32.58;17.23;;;12.90;99.90;;;;;;5546449;25;20029;-80
2024/04/12 06:58:49;;;;;;;33.55;16.15;;;13.00;99.90;;;;;;5544422;25;20021;-80
2024/04/12 07:01:21;;;;;;;30.38;17.55;;;13.00;99.90;;;;;;5515405;25;20037;-80
2024/04/12 07:03:48;;;;;;;31.52;17.25;;;13.00;99.90;;;;;;5547068;25;20025;-80
2024/04/12 07:06:16;;;;;;;29.55;15.68;;;13.00;99.90;;;;;;5507019;25;19994;-80
2024/04/12 07:08:52;;;;;;;34.33;15.98;;;13.10;99.90;;;;;;5544130;25;20024;-80
2024/04/12 07:11:21;;;;;;;29.77;16.00;;;13.20;99.90;;;;;;5543660;25;20024;-80
2024/04/12 07:13:49;;;;;;;30.45;16.02;;;13.50;99.90;;;;;;5492034;26;20375;-79
2024/04/12 07:16:20;;;;;;;32.35;17.63;;;13.30;99.90;;;;;;5540669;25;20029;-80
2024/04/12 07:18:47;;;;;;;28.27;15.90;;;13.40;99.90;;;;;;5527428;25;20042;-80
2024/04/12 07:21:18;;;;;;;30.60;16.73;;;13.40;99.90;;;;;;5533729;25;20373;-80
2024/04/12 07:23:49;;;;;;;29.83;15.68;;;13.50;99.90;;;;;;5543767;25;20044;-81
2024/04/12 07:26:36;;;;;;;26.38;15.38;;;13.50;99.90;;;;;;5545214;25;20021;-80
2024/04/12 07:29:06;;;;;;;26.15;14.20;;;13.60;99.90;;;;;;5548028;25;20368;-79
2024/04/12 07:31:38;;;;;;;26.33;14.27;;;13.60;99.90;;;;;;5543039;25;20021;-79
2024/04/12 07:34:05;;;;;;;23.60;14.18;;;14.20;99.90;;;;;;5518553;25;20998;-79
2024/04/12 07:36:34;;;;;;;24.23;13.95;;;13.80;99.90;;;;;;5526921;25;20044;-79
2024/04/12 07:39:03;;;;;;;23.65;13.63;;;13.80;99.90;;;;;;5544758;25;20036;-80
2024/04/12 07:41:43;;;;;;;25.35;14.07;;;13.80;99.90;;;;;;5539149;25;20037;-81
2024/04/12 07:44:13;;;;;;;22.40;12.45;;;13.80;99.90;;;;;;5552079;25;20025;-79
2024/04/12 07:46:48;;;;;;;23.23;12.73;;;13.80;99.90;;;;;;5523687;25;20559;-80
2024/04/12 07:49:16;;;;;;;21.08;11.10;;;13.90;99.90;;;;;;5537606;25;20045;-79
2024/04/12 07:51:45;;;;;;;19.58;11.93;;;13.90;99.90;;;;;;5536455;25;20029;-80
2024/04/12 07:54:12;;;;;;;20.77;11.95;;;13.90;99.90;;;;;;5525110;25;20019;-81
2024/04/12 07:57:02;;;;;;;19.63;11.60;;;13.90;99.90;;;;;;5522475;25;20025;-79
2024/04/12 07:59:29;;;;;;;19.88;11.18;;;14.00;99.90;;;;;;5537579;25;20041;-80
2024/04/12 08:01:57;;;;;;;19.15;10.80;;;14.00;99.90;;;;;;5535022;25;20025;-80
2024/04/12 08:04:25;;;;;;;17.10;10.13;;;14.10;99.90;;;;;;5541590;25;20041;-81
2024/04/12 08:06:55;;;;;;;17.30;9.77;;;14.20;99.90;;;;;;5533287;25;20013;-81
2024/04/12 08:09:42;;;;;;;15.00;8.68;;;14.20;99.90;;;;;;5534825;25;20025;-80
2024/04/12 08:12:17;;;;;;;16.45;9.60;;;14.30;99.90;;;;;;5537736;25;20034;-79
2024/04/12 08:14:52;;;;;;;16.80;8.35;;;14.30;99.90;;;;;;5508716;26;20373;-79
2024/04/12 08:17:23;;;;;;;;;;;14.40;99.90;;;;;;5538401;25;20488;-81
2024/04/12 08:19:56;;;;;;;13.73;7.97;;;14.40;99.90;;;;;;5537858;25;19959;-78
2024/04/12 08:22:25;;;;;;;12.18;7.40;;;14.40;99.90;;;;;;5522805;25;20025;-80
2024/04/12 08:24:53;;;;;;;11.38;6.95;;;14.40;99.90;;;;;;5522425;25;20033;-78
2024/04/12 08:27:25;;;;;;;13.57;7.13;;;14.40;99.90;;;;;;5521254;25;20041;-80
2024/04/12 08:29:53;;;;;;;13.32;6.55;;;14.50;99.90;;;;;;5517414;25;20038;-79
2024/04/12 08:32:27;;;;;;;9.90;6.00;;;14.50;99.90;;;;;;5528674;25;20023;-80
2024/04/12 08:34:58;;;;;;;9.73;6.43;;;14.60;99.90;;;;;;5526045;25;20022;-80
2024/04/12 08:37:36;;;;;;;12.93;5.97;;;14.90;99.90;;;;;;5539792;25;20481;-80
2024/04/12 08:40:12;;;;;;;12.77;5.28;;;15.70;99.90;;;;;;5537756;25;20468;-80
2024/04/12 08:42:39;;;;;;;10.88;5.15;;;14.90;99.90;;;;;;5528576;25;20026;-79
2024/04/12 08:45:13;;;;;;;8.52;5.10;;;15.00;99.90;;;;;;5529563;25;20466;-80
2024/04/12 08:47:54;;;;;;;9.85;4.50;;;15.20;99.90;;;;;;5531590;25;20029;-80
2024/04/12 08:50:25;;;;;;;6.68;4.38;;;15.20;99.90;;;;;;5522763;25;20029;-79
2024/04/12 08:52:53;;;;;;;8.70;4.00;;;15.30;99.90;;;;;;5549120;25;20018;-81
2024/04/12 08:55:28;;;;;;;9.88;3.78;;;15.30;99.90;;;;;;5524194;25;20392;-80
2024/04/12 08:58:00;;;;;;;7.13;3.30;;;15.40;99.90;;;;;;5528037;25;20802;-80
2024/04/12 09:00:35;;;;;;;11.20;4.15;;;15.50;99.90;;;;;;5526427;25;20033;-84
2024/04/12 09:03:10;;;;;;;9.07;3.55;;;15.50;99.90;;;;;;5526663;25;20038;-82
2024/04/12 09:05:40;;;;;;;8.52;4.05;;;15.60;99.90;;;;;;5520740;25;20077;-78
2024/04/12 09:08:17;;;;;;;8.38;4.78;;;15.60;99.90;;;;;;5518999;26;20021;-80
2024/04/12 09:10:47;;;;;;;7.60;3.85;;;15.60;99.90;;;;;;5521676;25;20015;-81
2024/04/12 09:13:14;;;;;;;7.82;3.85;;;15.70;99.90;;;;;;5528422;25;20044;-78
2024/04/12 09:15:45;;;;;;;9.00;3.67;;;15.80;99.90;;;;;;5524663;25;20020;-80
2024/04/12 09:18:19;;;;;;;8.18;3.65;;;15.90;99.90;;;;;;5525554;25;20022;-82
2024/04/12 09:20:52;;;;;;;12.25;4.70;;;15.90;99.90;;;;;;5527893;25;20984;-80
2024/04/12 09:23:32;;;;;;;15.00;5.32;;;15.90;99.90;;;;;;5523619;25;20034;-81
2024/04/12 09:26:01;;;;;;;8.85;4.00;;;15.90;99.90;;;;;;5529003;25;20034;-80
2024/04/12 09:28:32;;;;;;;9.98;4.80;;;15.90;99.90;;;;;;5525619;25;20014;-81
2024/04/12 09:33:55;;;;;;;10.43;4.40;;;16.00;99.90;;;;;;5521875;26;20034;-81
2024/04/12 09:36:39;;;;;;;8.90;4.80;;;16.00;99.90;;;;;;5537188;25;20041;-80
2024/04/12 09:39:14;;;;;;;9.77;4.70;;;16.00;99.90;;;;;;5536101;25;20037;-80
2024/04/12 09:41:56;;;;;;;11.57;5.32;;;15.90;99.90;;;;;;5523771;25;20045;-81
2024/04/12 09:44:38;;;;;;;10.63;5.10;;;15.90;99.90;;;;;;5526097;25;20038;-83
2024/04/12 10:37:36;;;;;;;9.85;3.15;;;17.30;99.90;;;;;;5536348;25;20033;-82
2024/04/12 10:40:09;;;;;;;9.35;2.95;;;17.30;99.90;;;;;;5533784;25;20036;-79
2024/04/12 10:42:42;;;;;;;7.05;2.72;;;17.40;99.90;;;;;;5511544;25;20017;-81
2024/04/12 10:45:09;;;;;;;11.23;3.42;;;17.40;99.90;;;;;;5540671;25;20568;-80
2024/04/12 10:47:39;;;;;;;7.28;2.65;;;17.30;99.90;;;;;;5540294;25;20020;-79
2024/04/12 10:50:10;;;;;;;10.20;3.42;;;17.30;99.90;;;;;;5522222;25;20226;-79
2024/04/12 10:52:38;;;;;;;7.38;2.42;;;17.20;99.90;;;;;;5541029;25;20034;-81
2024/04/12 10:55:09;;;;;;;8.63;3.33;;;17.30;99.90;;;;;;5545447;25;20032;-80
2024/04/12 10:57:42;;;;;;;8.30;2.50;;;16.90;99.90;;;;;;5511918;25;20013;-80
2024/04/12 11:00:17;;;;;;;8.67;3.53;;;16.80;99.90;;;;;;5556969;25;20485;-79
2024/04/12 11:02:45;;;;;;;6.40;3.22;;;16.80;99.90;;;;;;5529146;25;20038;-80
2024/04/12 11:07:49;;;;;;;7.55;3.00;;;16.90;99.90;;;;;;5550827;25;20040;-79
2024/04/12 11:10:37;;;;;;;6.88;3.70;;;16.90;99.90;;;;;;5517016;25;20030;-81
2024/04/12 11:13:06;;;;;;;8.63;2.90;;;17.40;99.90;;;;;;5538950;25;20033;-81
2024/04/12 11:31:55;;;;;;;9.90;3.63;;;17.20;99.90;;;;;;5504344;26;20034;-79
2024/04/12 11:34:25;;;;;;;10.40;3.45;;;17.20;99.90;;;;;;5540552;25;20363;-80
2024/04/12 11:36:55;;;;;;;15.65;4.50;;;17.20;99.90;;;;;;5537655;25;20029;-80
2024/04/12 11:39:27;;;;;;;12.20;3.65;;;17.10;99.90;;;;;;5540214;25;20448;-80
2024/04/12 11:41:55;;;;;;;8.35;3.35;;;17.10;99.90;;;;;;5537437;25;20360;-80
2024/04/12 11:44:23;;;;;;;11.95;4.13;;;17.10;99.90;;;;;;5546181;25;20034;-81
2024/04/12 11:46:50;;;;;;;7.90;3.33;;;17.20;99.90;;;;;;5534188;25;20805;-79
2024/04/12 11:49:25;;;;;;;14.68;3.83;;;17.20;99.90;;;;;;5556017;25;20009;-81
2024/04/12 11:51:55;;;;;;;;;;;17.20;99.90;;;;;;5528757;25;20038;-80
2024/04/12 11:54:31;;;;;;;8.23;3.63;;;17.20;99.90;;;;;;5540159;25;19947;-79
2024/04/12 11:57:00;;;;;;;9.98;3.80;;;17.20;99.90;;;;;;5526822;25;20018;-79
2024/04/12 11:59:27;;;;;;;10.38;3.60;;;17.20;99.90;;;;;;5507707;26;20372;-80
2024/04/12 12:02:00;;;;;;;12.32;3.80;;;17.60;99.90;;;;;;5534567;25;20021;-79
2024/04/12 12:04:32;;;;;;;12.05;3.58;;;17.40;99.90;;;;;;5541791;25;20072;-79
2024/04/12 12:07:02;;;;;;;8.45;3.22;;;17.40;99.90;;;;;;5547068;25;20040;-79
2024/04/12 12:09:36;;;;;;;8.77;3.53;;;17.50;99.90;;;;;;5521913;25;20021;-80
2024/04/12 12:12:10;;;;;;;10.93;3.45;;;17.90;99.90;;;;;;5548083;25;20067;-79
2024/04/12 12:14:43;;;;;;;11.25;3.65;;;17.70;99.90;;;;;;5548641;25;20480;-79
2024/04/12 12:17:16;;;;;;;12.85;3.60;;;17.70;99.90;;;;;;5507136;25;20042;-81
2024/04/12 12:19:46;;;;;;;9.77;3.55;;;17.70;99.90;;;;;;5526801;25;20085;-80
2024/04/12 12:22:13;;;;;;;11.95;3.95;;;17.80;99.90;;;;;;5529882;25;20523;-79
2024/04/12 12:24:40;;;;;;;7.30;3.47;;;17.70;99.90;;;;;;5516767;25;20027;-79
2024/04/12 12:27:10;;;;;;;13.57;3.53;;;17.80;99.90;;;;;;5524173;25;20021;-81
2024/04/12 12:29:37;;;;;;;13.65;3.25;;;17.80;99.90;;;;;;5528203;25;20025;-80
2024/04/12 12:32:05;;;;;;;9.35;3.38;;;17.80;99.90;;;;;;5531313;25;20033;-81
2024/04/12 12:34:36;;;;;;;9.50;3.97;;;17.90;99.90;;;;;;5532553;25;20033;-79
2024/04/12 12:37:04;;;;;;;11.90;3.95;;;17.90;99.90;;;;;;5538488;25;20575;-79
2024/04/12 12:39:31;;;;;;;11.18;2.85;;;17.90;99.90;;;;;;5530366;25;20092;-79
2024/04/12 12:42:02;;;;;;;9.00;3.20;;;17.90;99.90;;;;;;5525440;25;20010;-81
2024/04/12 12:44:29;;;;;;;9.93;3.40;;;17.90;99.90;;;;;;5530154;25;20029;-80
2024/04/12 12:47:02;;;;;;;9.75;2.90;;;18.00;99.90;;;;;;5538913;25;20342;-80
2024/04/12 12:49:39;;;;;;;11.07;3.65;;;18.20;99.90;;;;;;5527714;25;20029;-81
2024/04/12 12:52:11;;;;;;;11.65;3.40;;;18.00;99.90;;;;;;5529204;25;20029;-82
2024/04/12 12:54:41;;;;;;;8.48;2.90;;;18.00;99.90;;;;;;5529026;25;20028;-81
2024/04/12 12:57:14;;;;;;;12.15;3.20;;;18.10;99.90;;;;;;5527925;25;20033;-80
2024/04/12 12:59:43;;;;;;;11.02;2.90;;;18.10;99.90;;;;;;5525997;25;20029;-79
2024/04/12 13:02:14;;;;;;;8.40;2.67;;;18.10;99.90;;;;;;5534154;25;20025;-80
2024/04/12 13:04:41;;;;;;;7.72;2.67;;;18.00;99.90;;;;;;5524613;25;20013;-81
2024/04/12 13:07:09;;;;;;;8.90;2.47;;;18.10;99.90;;;;;;5544303;25;20033;-81
2024/04/12 13:09:37;;;;;;;8.32;2.33;;;18.40;99.90;;;;;;5522810;25;20025;-80
2024/04/12 13:12:09;;;;;;;8.70;2.65;;;18.20;99.90;;;;;;5528363;25;20033;-79
2024/04/12 13:14:37;;;;;;;6.72;2.53;;;18.20;99.90;;;;;;5535252;25;20025;-79
2024/04/12 13:17:11;;;;;;;9.00;2.72;;;18.50;99.90;;;;;;5520711;25;20034;-79
2024/04/12 13:19:38;;;;;;;8.98;2.65;;;18.20;99.90;;;;;;5529727;25;20025;-79
2024/04/12 13:22:08;;;;;;;11.73;2.78;;;18.10;99.90;;;;;;5529243;25;20041;-81
2024/04/12 13:24:35;;;;;;;12.07;3.03;;;18.00;99.90;;;;;;5531875;25;20484;-80
2024/04/12 13:27:02;;;;;;;9.10;3.22;;;18.10;99.90;;;;;;5532565;25;20025;-80
2024/04/12 13:29:30;;;;;;;7.53;2.45;;;18.00;99.90;;;;;;5527763;25;20021;-78
2024/04/12 13:31:57;;;;;;;9.57;2.92;;;18.10;99.90;;;;;;5528973;25;20017;-80
2024/04/12 13:34:24;;;;;;;13.73;3.25;;;18.00;99.90;;;;;;5536172;25;20049;-80
2024/04/12 13:36:53;;;;;;;7.32;2.60;;;18.10;99.90;;;;;;5528212;25;20033;-80
2024/04/12 13:39:20;;;;;;;9.77;3.00;;;18.10;99.90;;;;;;5534849;25;20046;-81
2024/04/12 13:41:47;;;;;;;10.32;3.70;;;18.10;99.90;;;;;;5529494;25;20025;-79
2024/04/12 13:44:25;;;;;;;8.15;3.22;;;18.10;99.90;;;;;;5541671;25;20015;-80
2024/04/12 13:52:25;;;;;;;10.40;3.60;;;18.00;99.90;;;;;;5531652;25;20053;-81
2024/04/12 13:54:51;;;;;;;12.23;3.55;;;18.00;99.90;;;;;;5527685;25;20465;-80
2024/04/12 13:57:24;;;;;;;7.63;3.38;;;17.90;99.90;;;;;;5531397;25;20017;-80
2024/04/12 13:59:51;;;;;;;10.45;3.80;;;18.00;99.90;;;;;;5529123;25;20025;-80
2024/04/12 14:02:18;;;;;;;10.15;3.67;;;17.90;99.90;;;;;;5528897;25;20014;-80
2024/04/12 14:04:45;;;;;;;14.45;4.30;;;17.90;99.90;;;;;;5525936;25;20376;-79
2024/04/12 14:07:12;;;;;;;12.50;4.47;;;17.80;99.90;;;;;;5550085;25;20029;-81
2024/04/12 14:09:38;;;;;;;13.82;4.50;;;17.80;99.90;;;;;;5514767;26;20025;-81
2024/04/12 14:12:05;;;;;;;12.50;3.50;;;17.70;99.90;;;;;;5534719;25;20835;-81
2024/04/12 14:14:32;;;;;;;12.20;4.15;;;17.80;99.90;;;;;;5528843;25;21642;-80
2024/04/12 14:16:59;;;;;;;12.55;4.47;;;17.90;99.90;;;;;;5529372;25;20041;-79
2024/04/12 14:19:26;;;;;;;16.55;4.53;;;17.80;99.90;;;;;;5531490;25;20765;-79
2024/04/12 14:21:54;;;;;;;10.45;4.15;;;17.90;99.90;;;;;;5530731;25;20021;-80